Résultat compétition

ESF SERRE CHE. BRIANCON : Flèche du 24/01/2010   picture_as_pdf

 Epreuve antérieure au 1er Décembre 2018, ne comptant plus pour le classement SkiOpen.

Ouvreur Handicap Temps Réalisé Temps Base
MONIER SEBASTIEN 6.00 52.06 49.11
Médaille Or Vermeil Argent Bronze Fléchette
Pourcentage 15.00% 28.00% 40.00% 45.00% 50.00%
Temps 57.46 1:03.84 1:11.21 1:18.58 1:21.03
Clt.  expand_more Identité Code S. An Cat Temps Pts Médaille PDF Cor.
1 ROUX TIFANY FFS2623165 F 1997 BEN 56.67 15.39 Or picture_as_pdf edit
2 GUINNEFOLLAU NOLWENN FFS2613898 F 1997 BEN 56.88 15.81 Or picture_as_pdf edit
3 REBRON JULIE FFS2627915 F 1997 BEN 56.92 15.90 Or picture_as_pdf edit
4 AUGUSTIN MARGOT FFS2626502 F 1998 BEN 57.10 16.26 Or picture_as_pdf edit
5 BERGER CHARLINE FFS2627623 F 1998 BEN 57.41 16.89 Or picture_as_pdf edit
6 CERUTTI CAMILLE FFS2625334 F 1998 BEN 58.45 19.01 Vermeil picture_as_pdf edit
7 AMOROS INES FFS2621111 F 1998 BEN 58.98 20.09 Vermeil picture_as_pdf edit
8 FERNANDEZ INES FFS2620439 F 1998 BEN 59.58 21.31 Vermeil picture_as_pdf edit
9 SICARD JULIE FFS2620572 F 1997 BEN 59.77 21.70 Vermeil picture_as_pdf edit
10 BARONNA SANITA FFS2626672 F 1997 BEN 59.86 21.88 Vermeil picture_as_pdf edit
11 RISOUL THELMA FFS2621883 F 1997 BEN 1:00.12 22.41 Vermeil picture_as_pdf edit
12 DE FROISSARD MATHILDE FFS2645901 F 1998 BEN 1:00.25 22.68 Vermeil picture_as_pdf edit
13 FAURE VINCENT LAURA FFS2625947 F 1997 BEN 1:00.31 22.80 Vermeil picture_as_pdf edit
14 FINE JULIE FFS2627622 F 1998 BEN 1:00.39 22.96 Vermeil picture_as_pdf edit
15 EHRHART LAURIE FFS2613965 F 1997 BEN 1:00.40 22.98 Vermeil picture_as_pdf edit
16 DEBUE SOLENE FFS2624300 F 1997 BEN 1:00.43 23.04 Vermeil picture_as_pdf edit
17 BELLOT MATHILDE FFS2614169 F 1997 BEN 1:00.55 23.29 Vermeil picture_as_pdf edit
18 GUEDJ ALISON FFS2628017 F 1997 BEN 1:00.60 23.39 Vermeil picture_as_pdf edit
18 TRIPODI JESSICA FFS2632703 F 1997 BEN 1:00.60 23.39 Vermeil picture_as_pdf edit
20 QUEYRAS MARIE FFS2633869 F 1998 BEN 1:00.68 23.55 Vermeil picture_as_pdf edit
21 BARON COLINE FFS2627934 F 1998 BEN 1:00.91 24.02 Vermeil picture_as_pdf edit
22 GUILLERMIN MANON FFS2632700 F 1998 BEN 1:01.15 24.51 Vermeil picture_as_pdf edit
22 MARTIN EMMA FFS2621884 F 1997 BEN 1:01.15 24.51 Vermeil picture_as_pdf edit
24 CHAIX JULIETTE FFS2631261 F 1998 BEN 1:01.29 24.79 Vermeil picture_as_pdf edit
25 PICCA ZOE FFS2642421 F 1998 BEN 1:01.34 24.90 Vermeil picture_as_pdf edit
26 BODRERO ALISON FFS2622515 F 1998 BEN 1:01.48 25.18 Vermeil picture_as_pdf edit
27 FAURE LISA FFS2627624 F 1998 BEN 1:01.61 25.45 Vermeil picture_as_pdf edit
27 GIORDANI LISA FFS2633738 F 1998 BEN 1:01.61 25.45 Vermeil picture_as_pdf edit
29 AMOROS SOLENE FFS2618718 F 1997 BEN 1:01.78 25.79 Vermeil picture_as_pdf edit
30 DELACROIX EMMA FFS2625163 F 1997 BEN 1:01.79 25.81 Vermeil picture_as_pdf edit
31 PINTADU LAURA FFS2620570 F 1997 BEN 1:02.11 26.46 Vermeil picture_as_pdf edit
32 PARTY FIONA FFS2626236 F 1998 BEN 1:02.80 27.87 Vermeil picture_as_pdf edit
33 ALBRAND ELSA FFS2634284 F 1998 BEN 1:02.81 27.89 Vermeil picture_as_pdf edit
34 PERIS MARION FFS2632842 F 1998 BEN 1:02.82 27.91 Vermeil picture_as_pdf edit
35 FAURE VINCENT LUANA FFS2628053 F 1998 BEN 1:03.04 28.36 Vermeil picture_as_pdf edit
36 FAURE BRAC STEPHANIE FFS2627534 F 1998 BEN 1:03.16 28.60 Vermeil picture_as_pdf edit
37 JOFFROY CATHERINE FFS2627894 F 1998 BEN 1:03.55 29.40 Vermeil picture_as_pdf edit
38 ANDRE MARIE FFS2630221 F 1998 BEN 1:03.94 30.19 Argent picture_as_pdf edit
39 GONDRE ROMANE FFS2618443 F 1997 BEN 1:04.73 31.80 Argent picture_as_pdf edit
40 DADON NINA FFS2644919 F 1998 BEN 1:05.69 33.75 Argent picture_as_pdf edit
41 CREACHCADEC LOU FFS2634229 F 1998 BEN 1:06.97 36.36 Argent picture_as_pdf edit
42 ALBANO LISE FFS2621211 F 1997 BEN 1:09.40 41.31 Argent picture_as_pdf edit